Time;durP1;ratioP1;P1;durP2;ratioP2;P2;SDS_P1;SDS_P2;PMS_P1;PMS_P2;Temp;Humidity;BMP_temperature;BMP_pressure;BME280_temperature;BME280_humidity;BME280_pressure;Samples;Min_cycle;Max_cycle;Signal;HPM_P1;HPM_P2
2021/11/15 00:00:25;;;;;;;;;;;;;;;;;;1020645;29;1030;-24
2021/11/15 00:00:58;;;;;;;;;;;;;;;;;;1020849;28;1030;-23
2021/11/15 00:01:30;;;;;;;;;;;;;;;;;;1024516;28;1496;-22
2021/11/15 00:02:01;;;;;;;;;;;;;;;;;;1020717;29;994;-22
2021/11/15 00:02:31;;;;;;;;;;;;;;;;;;1020306;29;1167;-22
2021/11/15 00:03:02;;;;;;;;;;;;;;;;;;1016855;29;1233;-22
2021/11/15 00:03:32;;;;;;;;;;;;;;;;;;1016906;28;1910;-22
2021/11/15 00:04:03;;;;;;;;;;;;;;;;;;1024441;28;1319;-22
2021/11/15 00:04:34;;;;;;;;;;;;;;;;;;1024658;28;1100;-23
2021/11/15 00:05:04;;;;;;;;;;;;;;;;;;1029582;28;816;-23
2021/11/15 00:05:35;;;;;;;;;;;;;;;;;;1028428;28;1067;-22
2021/11/15 00:06:06;;;;;;;;;;;;;;;;;;1028785;28;985;-22
2021/11/15 00:06:36;;;;;;;;;;;;;;;;;;1028344;28;1626;-22
2021/11/15 00:07:07;;;;;;;;;;;;;;;;;;1028810;28;1055;-22
2021/11/15 00:07:38;;;;;;;;;;;;;;;;;;1029318;28;843;-23
2021/11/15 00:08:08;;;;;;;;;;;;;;;;;;1029219;28;1420;-22
2021/11/15 00:08:39;;;;;;;;;;;;;;;;;;1029382;28;1077;-22
2021/11/15 00:09:09;;;;;;;;;;;;;;;;;;1024337;28;1140;-22
2021/11/15 00:09:43;;;;;;;;;;;;;;;;;;1024811;28;1347;-22
2021/11/15 00:10:16;;;;;;;;;;;;;;;;;;1024623;28;1092;-24
2021/11/15 00:10:48;;;;;;;;;;;;;;;;;;1020658;29;1090;-23
2021/11/15 00:11:19;;;;;;;;;;;;;;;;;;1020800;29;1020;-22
2021/11/15 00:11:49;;;;;;;;;;;;;;;;;;1020079;29;1372;-22
2021/11/15 00:12:20;;;;;;;;;;;;;;;;;;1021740;28;1104;-22
2021/11/15 00:12:51;;;;;;;;;;;;;;;;;;1029208;28;910;-22
2021/11/15 00:13:21;;;;;;;;;;;;;;;;;;1029209;28;1040;-22
2021/11/15 00:13:52;;;;;;;;;;;;;;;;;;1029225;28;1101;-23
2021/11/15 00:14:23;;;;;;;;;;;;;;;;;;1029048;28;1432;-23
2021/11/15 00:14:53;;;;;;;;;;;;;;;;;;1029103;28;1127;-23
2021/11/15 00:15:24;;;;;;;;;;;;;;;;;;1024738;28;1021;-22
2021/11/15 00:15:55;;;;;;;;;;;;;;;;;;1020219;29;1320;-22
2021/11/15 00:16:25;;;;;;;;;;;;;;;;;;1020733;29;1199;-22
2021/11/15 00:16:55;;;;;;;;;;;;;;;;;;1020704;28;995;-22
2021/11/15 00:17:27;;;;;;;;;;;;;;;;;;1024427;28;1195;-22
2021/11/15 00:17:58;;;;;;;;;;;;;;;;;;1029384;28;960;-22
2021/11/15 00:18:28;;;;;;;;;;;;;;;;;;1029094;28;1540;-22
2021/11/15 00:18:58;;;;;;;;;;;;;;;;;;1029080;28;990;-23
2021/11/15 00:19:29;;;;;;;;;;;;;;;;;;1029265;28;1032;-22
2021/11/15 00:19:59;;;;;;;;;;;;;;;;;;1028878;28;1705;-23
2021/11/15 00:20:29;;;;;;;;;;;;;;;;;;1029256;28;1072;-23
2021/11/15 00:21:00;;;;;;;;;;;;;;;;;;1029201;28;1200;-22
2021/11/15 00:21:30;;;;;;;;;;;;;;;;;;1029377;28;966;-23
2021/11/15 00:22:01;;;;;;;;;;;;;;;;;;1029429;28;890;-23
2021/11/15 00:22:31;;;;;;;;;;;;;;;;;;1029246;28;799;-22
2021/11/15 00:23:02;;;;;;;;;;;;;;;;;;1029235;28;1066;-22
2021/11/15 00:23:32;;;;;;;;;;;;;;;;;;1029083;28;1914;-22
2021/11/15 00:24:03;;;;;;;;;;;;;;;;;;1029110;28;1384;-22
2021/11/15 00:24:36;;;;;;;;;;;;;;;;;;1029295;28;1142;-23
2021/11/15 00:25:06;;;;;;;;;;;;;;;;;;1029345;28;942;-21
2021/11/15 00:25:39;;;;;;;;;;;;;;;;;;1029228;28;1030;-22
2021/11/15 00:26:09;;;;;;;;;;;;;;;;;;1029502;28;966;-21
2021/11/15 00:26:40;;;;;;;;;;;;;;;;;;1029300;28;966;-22
2021/11/15 00:27:10;;;;;;;;;;;;;;;;;;1029370;28;926;-23
2021/11/15 00:27:42;;;;;;;;;;;;;;;;;;1024811;28;1367;-22
2021/11/15 00:28:12;;;;;;;;;;;;;;;;;;1024881;28;948;-22
2021/11/15 00:28:43;;;;;;;;;;;;;;;;;;1024999;28;1433;-22
2021/11/15 00:29:13;;;;;;;;;;;;;;;;;;1019745;29;1453;-22
2021/11/15 00:29:44;;;;;;;;;;;;;;;;;;1020125;29;1281;-22
2021/11/15 00:30:15;;;;;;;;;;;;;;;;;;1020546;28;1098;-23
2021/11/15 00:30:48;;;;;;;;;;;;;;;;;;1025313;28;847;-22
2021/11/15 00:31:21;;;;;;;;;;;;;;;;;;1028797;28;983;-22
2021/11/15 00:31:52;;;;;;;;;;;;;;;;;;1028567;28;1025;-23
2021/11/15 00:32:23;;;;;;;;;;;;;;;;;;1024689;28;1249;-22
2021/11/15 00:32:53;;;;;;;;;;;;;;;;;;1024232;28;1355;-22
2021/11/15 00:33:23;;;;;;;;;;;;;;;;;;1024280;28;1127;-22
2021/11/15 00:33:54;;;;;;;;;;;;;;;;;;1020660;29;990;-23
2021/11/15 00:34:24;;;;;;;;;;;;;;;;;;1020141;29;1182;-22
2021/11/15 00:34:55;;;;;;;;;;;;;;;;;;1020514;29;1296;-22
2021/11/15 00:35:26;;;;;;;;;;;;;;;;;;1016905;29;876;-22
2021/11/15 00:35:56;;;;;;;;;;;;;;;;;;1019743;29;1280;-23
2021/11/15 00:36:26;;;;;;;;;;;;;;;;;;1020751;29;1071;-22
2021/11/15 00:36:57;;;;;;;;;;;;;;;;;;1020354;29;1289;-22
2021/11/15 00:37:30;;;;;;;;;;;;;;;;;;1029165;28;1132;-23
2021/11/15 00:38:01;;;;;;;;;;;;;;;;;;1029534;28;825;-22
2021/11/15 00:38:32;;;;;;;;;;;;;;;;;;1028998;28;1076;-23
2021/11/15 00:39:04;;;;;;;;;;;;;;;;;;1024631;28;963;-22
2021/11/15 00:39:34;;;;;;;;;;;;;;;;;;1024338;28;1453;-22
2021/11/15 00:40:07;;;;;;;;;;;;;;;;;;1016169;29;1331;-23
2021/11/15 00:40:37;;;;;;;;;;;;;;;;;;1016958;29;1168;-23
2021/11/15 00:41:08;;;;;;;;;;;;;;;;;;1020811;29;1141;-22
2021/11/15 00:41:38;;;;;;;;;;;;;;;;;;1021092;28;1005;-22
2021/11/15 00:42:09;;;;;;;;;;;;;;;;;;1029331;28;976;-22
2021/11/15 00:42:40;;;;;;;;;;;;;;;;;;1029172;28;891;-22
2021/11/15 00:43:10;;;;;;;;;;;;;;;;;;1029328;28;961;-24
2021/11/15 00:43:41;;;;;;;;;;;;;;;;;;1029041;28;1976;-23
2021/11/15 00:44:11;;;;;;;;;;;;;;;;;;1029073;28;980;-23
2021/11/15 00:44:42;;;;;;;;;;;;;;;;;;1029482;28;918;-22
2021/11/15 00:45:13;;;;;;;;;;;;;;;;;;1028752;28;1251;-22
2021/11/15 00:45:44;;;;;;;;;;;;;;;;;;1020613;29;1103;-22
2021/11/15 00:46:15;;;;;;;;;;;;;;;;;;1020174;29;1208;-22
2021/11/15 00:46:45;;;;;;;;;;;;;;;;;;1020453;29;1087;-22
2021/11/15 00:47:16;;;;;;;;;;;;;;;;;;1020887;28;984;-22
2021/11/15 00:47:46;;;;;;;;;;;;;;;;;;1028322;28;1212;-22
2021/11/15 00:48:16;;;;;;;;;;;;;;;;;;1029182;28;973;-22
2021/11/15 00:48:48;;;;;;;;;;;;;;;;;;1029472;28;937;-22
2021/11/15 00:49:18;;;;;;;;;;;;;;;;;;1028965;28;1431;-22
2021/11/15 00:49:49;;;;;;;;;;;;;;;;;;1024616;28;921;-22
2021/11/15 00:50:21;;;;;;;;;;;;;;;;;;1012137;29;1080;-23
2021/11/15 00:50:51;;;;;;;;;;;;;;;;;;1012635;29;1010;-22
2021/11/15 00:51:25;;;;;;;;;;;;;;;;;;1010798;29;1317;-22
2021/11/15 00:51:56;;;;;;;;;;;;;;;;;;1010535;29;892;-22
2021/11/15 00:52:26;;;;;;;;;;;;;;;;;;1021454;29;942;-23
2021/11/15 00:53:00;;;;;;;;;;;;;;;;;;1021237;29;959;-22
2021/11/15 00:53:31;;;;;;;;;;;;;;;;;;1020848;28;961;-22
2021/11/15 00:54:01;;;;;;;;;;;;;;;;;;1021493;29;1133;-22
2021/11/15 00:54:34;;;;;;;;;;;;;;;;;;1021147;29;1064;-22
2021/11/15 00:55:04;;;;;;;;;;;;;;;;;;1021175;29;999;-22
2021/11/15 00:55:35;;;;;;;;;;;;;;;;;;1012890;29;1327;-22
2021/11/15 00:56:05;;;;;;;;;;;;;;;;;;1013576;29;879;-24
2021/11/15 00:56:35;;;;;;;;;;;;;;;;;;1013772;29;1097;-22
2021/11/15 00:57:06;;;;;;;;;;;;;;;;;;1017500;29;1445;-22
2021/11/15 00:57:36;;;;;;;;;;;;;;;;;;1021719;29;1079;-22
2021/11/15 00:58:07;;;;;;;;;;;;;;;;;;1022335;29;914;-22
2021/11/15 00:58:37;;;;;;;;;;;;;;;;;;1021833;29;943;-22
2021/11/15 00:59:07;;;;;;;;;;;;;;;;;;1021930;29;997;-23
2021/11/15 00:59:38;;;;;;;;;;;;;;;;;;1021955;29;1014;-25
2021/11/15 01:00:10;;;;;;;;;;;;;;;;;;1017895;29;891;-23
2021/11/15 01:00:41;;;;;;;;;;;;;;;;;;1017799;29;931;-23
2021/11/15 01:01:12;;;;;;;;;;;;;;;;;;1013003;29;1293;-22
2021/11/15 01:01:43;;;;;;;;;;;;;;;;;;1013885;29;1097;-22
2021/11/15 01:02:13;;;;;;;;;;;;;;;;;;1017179;29;1307;-22
2021/11/15 01:02:44;;;;;;;;;;;;;;;;;;1013119;29;1084;-22
2021/11/15 01:03:15;;;;;;;;;;;;;;;;;;1017285;29;1075;-23
2021/11/15 01:03:47;;;;;;;;;;;;;;;;;;1016758;29;1903;-22
2021/11/15 01:04:17;;;;;;;;;;;;;;;;;;1017740;29;1077;-23
2021/11/15 01:04:51;;;;;;;;;;;;;;;;;;1022015;29;1158;-22
2021/11/15 01:05:25;;;;;;;;;;;;;;;;;;1021905;29;1002;-23
2021/11/15 01:06:00;;;;;;;;;;;;;;;;;;1021135;29;1068;-23
2021/11/15 01:06:31;;;;;;;;;;;;;;;;;;1016992;29;1076;-23
2021/11/15 01:07:01;;;;;;;;;;;;;;;;;;1017347;29;997;-23
2021/11/15 01:07:32;;;;;;;;;;;;;;;;;;1017500;29;880;-22
2021/11/15 01:08:02;;;;;;;;;;;;;;;;;;1017485;29;966;-23
2021/11/15 01:08:33;;;;;;;;;;;;;;;;;;1025253;28;976;-22
2021/11/15 01:09:05;;;;;;;;;;;;;;;;;;1013070;29;1008;-22
2021/11/15 01:09:35;;;;;;;;;;;;;;;;;;1013331;29;1287;-22
2021/11/15 01:10:08;;;;;;;;;;;;;;;;;;1013412;29;916;-22
2021/11/15 01:10:38;;;;;;;;;;;;;;;;;;1014049;29;927;-21
2021/11/15 01:11:09;;;;;;;;;;;;;;;;;;1021758;29;1319;-22
2021/11/15 01:11:39;;;;;;;;;;;;;;;;;;1021873;29;852;-22
2021/11/15 01:12:10;;;;;;;;;;;;;;;;;;1013425;29;1026;-22
2021/11/15 01:12:40;;;;;;;;;;;;;;;;;;1013406;29;1066;-23
2021/11/15 01:13:11;;;;;;;;;;;;;;;;;;1012998;29;1519;-22
2021/11/15 01:13:42;;;;;;;;;;;;;;;;;;1013524;29;1187;-22
2021/11/15 01:14:13;;;;;;;;;;;;;;;;;;1021607;29;1252;-22
2021/11/15 01:14:44;;;;;;;;;;;;;;;;;;1022051;29;1029;-22
2021/11/15 01:15:16;;;;;;;;;;;;;;;;;;1021830;29;1038;-22
2021/11/15 01:15:47;;;;;;;;;;;;;;;;;;1020718;29;1513;-23
2021/11/15 01:16:18;;;;;;;;;;;;;;;;;;1021360;29;1333;-22
2021/11/15 01:16:50;;;;;;;;;;;;;;;;;;1016823;29;1503;-23
2021/11/15 01:17:20;;;;;;;;;;;;;;;;;;1017334;29;1282;-23
2021/11/15 01:17:51;;;;;;;;;;;;;;;;;;1017252;29;924;-23
2021/11/15 01:18:22;;;;;;;;;;;;;;;;;;1017376;29;1507;-22
2021/11/15 01:18:52;;;;;;;;;;;;;;;;;;1021751;29;1135;-23
2021/11/15 01:19:22;;;;;;;;;;;;;;;;;;1021903;29;930;-22
2021/11/15 01:19:53;;;;;;;;;;;;;;;;;;1021818;29;1139;-23
2021/11/15 01:20:25;;;;;;;;;;;;;;;;;;1022071;29;1017;-23
2021/11/15 01:20:56;;;;;;;;;;;;;;;;;;1021175;29;1619;-24
2021/11/15 01:21:28;;;;;;;;;;;;;;;;;;1016973;29;1180;-23
2021/11/15 01:21:58;;;;;;;;;;;;;;;;;;1017224;29;1088;-22
2021/11/15 01:22:29;;;;;;;;;;;;;;;;;;1016818;29;1338;-23
2021/11/15 01:22:59;;;;;;;;;;;;;;;;;;1017758;29;1173;-22
2021/11/15 01:23:30;;;;;;;;;;;;;;;;;;1016640;29;1650;-22
2021/11/15 01:24:01;;;;;;;;;;;;;;;;;;1016955;29;1906;-22
2021/11/15 01:24:32;;;;;;;;;;;;;;;;;;1017176;29;1369;-22
2021/11/15 01:25:03;;;;;;;;;;;;;;;;;;1017220;29;1228;-23
2021/11/15 01:25:35;;;;;;;;;;;;;;;;;;1022110;29;1089;-23
2021/11/15 01:26:06;;;;;;;;;;;;;;;;;;1021035;29;1259;-22
2021/11/15 01:26:36;;;;;;;;;;;;;;;;;;1021010;29;1097;-22
2021/11/15 01:27:07;;;;;;;;;;;;;;;;;;1021410;29;1407;-22
2021/11/15 01:27:39;;;;;;;;;;;;;;;;;;1016891;29;1411;-21
2021/11/15 01:28:09;;;;;;;;;;;;;;;;;;1017141;29;1057;-22
2021/11/15 01:28:39;;;;;;;;;;;;;;;;;;1017286;29;1089;-22
2021/11/15 01:29:11;;;;;;;;;;;;;;;;;;1009401;29;999;-22
2021/11/15 01:29:42;;;;;;;;;;;;;;;;;;1017389;29;1162;-22
2021/11/15 01:30:14;;;;;;;;;;;;;;;;;;1016949;29;1001;-22
2021/11/15 01:30:44;;;;;;;;;;;;;;;;;;1010184;29;1024;-22
2021/11/15 01:31:15;;;;;;;;;;;;;;;;;;1017085;29;1011;-22
2021/11/15 01:31:47;;;;;;;;;;;;;;;;;;1012753;29;1324;-22
2021/11/15 01:32:17;;;;;;;;;;;;;;;;;;1009314;29;1445;-23
2021/11/15 01:32:48;;;;;;;;;;;;;;;;;;1017108;29;1359;-22
2021/11/15 01:33:19;;;;;;;;;;;;;;;;;;1017248;29;1077;-23
2021/11/15 01:33:50;;;;;;;;;;;;;;;;;;1009485;29;1082;-23
2021/11/15 01:34:21;;;;;;;;;;;;;;;;;;1013014;29;1332;-22
2021/11/15 01:34:51;;;;;;;;;;;;;;;;;;1013252;29;1028;-23
2021/11/15 01:35:22;;;;;;;;;;;;;;;;;;1013482;29;1343;-22
2021/11/15 01:35:53;;;;;;;;;;;;;;;;;;1020852;29;1172;-22
2021/11/15 01:36:26;;;;;;;;;;;;;;;;;;1021184;29;1107;-23
2021/11/15 01:36:57;;;;;;;;;;;;;;;;;;1016470;29;1507;-22
2021/11/15 01:37:28;;;;;;;;;;;;;;;;;;1017275;29;1173;-22
2021/11/15 01:37:58;;;;;;;;;;;;;;;;;;1016786;29;1331;-23
2021/11/15 01:38:29;;;;;;;;;;;;;;;;;;1013121;29;1021;-22
2021/11/15 01:38:59;;;;;;;;;;;;;;;;;;1013254;29;1047;-22
2021/11/15 01:39:30;;;;;;;;;;;;;;;;;;1013350;29;919;-23
2021/11/15 01:40:01;;;;;;;;;;;;;;;;;;1017133;29;980;-23
2021/11/15 01:40:32;;;;;;;;;;;;;;;;;;1009352;29;1273;-22
2021/11/15 01:41:03;;;;;;;;;;;;;;;;;;1009250;29;1086;-22
2021/11/15 01:41:34;;;;;;;;;;;;;;;;;;1009717;29;1015;-22
2021/11/15 01:42:07;;;;;;;;;;;;;;;;;;1013345;29;1596;-23
2021/11/15 01:42:38;;;;;;;;;;;;;;;;;;1021749;29;1176;-22
2021/11/15 01:43:09;;;;;;;;;;;;;;;;;;1021024;29;947;-22
2021/11/15 01:43:40;;;;;;;;;;;;;;;;;;1021145;29;1898;-21
2021/11/15 01:44:11;;;;;;;;;;;;;;;;;;1017169;29;989;-21
2021/11/15 01:44:41;;;;;;;;;;;;;;;;;;1017337;29;1054;-22
2021/11/15 01:45:18;;;;;;;;;;;;;;;;;;1017025;29;1052;-23
2021/11/15 01:45:48;;;;;;;;;;;;;;;;;;1018234;29;1011;-22
2021/11/15 01:46:19;;;;;;;;;;;;;;;;;;1021934;29;1064;-22
2021/11/15 01:46:50;;;;;;;;;;;;;;;;;;1021015;29;1093;-22
2021/11/15 01:47:20;;;;;;;;;;;;;;;;;;1020923;29;1036;-23
2021/11/15 01:47:55;;;;;;;;;;;;;;;;;;1020971;29;1045;-22
2021/11/15 01:48:25;;;;;;;;;;;;;;;;;;1020850;29;879;-22
2021/11/15 01:48:56;;;;;;;;;;;;;;;;;;1016427;29;1651;-24
2021/11/15 01:49:26;;;;;;;;;;;;;;;;;;1017426;29;1175;-22
2021/11/15 01:49:57;;;;;;;;;;;;;;;;;;1016705;29;1532;-22
2021/11/15 01:50:31;;;;;;;;;;;;;;;;;;1016832;29;1365;-23
2021/11/15 01:51:02;;;;;;;;;;;;;;;;;;1013150;29;1081;-22
2021/11/15 01:51:33;;;;;;;;;;;;;;;;;;1017428;28;1121;-22
2021/11/15 01:52:03;;;;;;;;;;;;;;;;;;1017108;29;1009;-22
2021/11/15 01:52:33;;;;;;;;;;;;;;;;;;1017246;29;1016;-22
2021/11/15 01:53:06;;;;;;;;;;;;;;;;;;1016946;29;1200;-23
2021/11/15 01:53:40;;;;;;;;;;;;;;;;;;1013554;29;951;-24
2021/11/15 01:54:10;;;;;;;;;;;;;;;;;;1016999;29;1131;-22
2021/11/15 01:54:40;;;;;;;;;;;;;;;;;;1017353;29;952;-22
2021/11/15 01:55:14;;;;;;;;;;;;;;;;;;1018359;28;1066;-23
2021/11/15 01:55:48;;;;;;;;;;;;;;;;;;1025943;28;989;-23
2021/11/15 01:56:18;;;;;;;;;;;;;;;;;;1025973;28;1016;-23
2021/11/15 01:56:49;;;;;;;;;;;;;;;;;;1025356;28;1073;-22
2021/11/15 01:57:20;;;;;;;;;;;;;;;;;;1025870;28;1298;-22
2021/11/15 01:57:51;;;;;;;;;;;;;;;;;;1020471;29;1095;-22
2021/11/15 01:58:22;;;;;;;;;;;;;;;;;;1020915;29;960;-22
2021/11/15 01:58:53;;;;;;;;;;;;;;;;;;1020962;29;968;-23
2021/11/15 01:59:24;;;;;;;;;;;;;;;;;;1016938;29;1057;-23
2021/11/15 01:59:54;;;;;;;;;;;;;;;;;;1013288;29;1003;-22
2021/11/15 02:00:24;;;;;;;;;;;;;;;;;;1013326;29;1062;-22
2021/11/15 02:00:57;;;;;;;;;;;;;;;;;;1020894;28;1315;-23
2021/11/15 02:01:28;;;;;;;;;;;;;;;;;;1017038;29;1005;-22
2021/11/15 02:02:00;;;;;;;;;;;;;;;;;;1017311;29;1096;-22
2021/11/15 02:02:31;;;;;;;;;;;;;;;;;;1017176;29;1142;-22
2021/11/15 02:03:01;;;;;;;;;;;;;;;;;;1017905;28;1190;-22
2021/11/15 02:03:32;;;;;;;;;;;;;;;;;;1025413;28;1519;-23
2021/11/15 02:04:03;;;;;;;;;;;;;;;;;;1025780;28;1958;-23
2021/11/15 02:04:33;;;;;;;;;;;;;;;;;;1020963;29;1188;-22
2021/11/15 02:05:04;;;;;;;;;;;;;;;;;;1016576;29;1157;-22
2021/11/15 02:05:35;;;;;;;;;;;;;;;;;;1017144;29;1200;-22
2021/11/15 02:06:06;;;;;;;;;;;;;;;;;;1016754;28;1194;-22
2021/11/15 02:06:37;;;;;;;;;;;;;;;;;;1013048;29;1128;-23
2021/11/15 02:07:07;;;;;;;;;;;;;;;;;;1001751;29;996;-22
2021/11/15 02:07:38;;;;;;;;;;;;;;;;;;1001448;29;1165;-22
2021/11/15 02:08:08;;;;;;;;;;;;;;;;;;1001975;29;1338;-22
2021/11/15 02:08:39;;;;;;;;;;;;;;;;;;1011139;28;1374;-23
2021/11/15 02:09:09;;;;;;;;;;;;;;;;;;1024988;28;1427;-22
2021/11/15 02:09:40;;;;;;;;;;;;;;;;;;1025489;28;1072;-23
2021/11/15 02:10:11;;;;;;;;;;;;;;;;;;1025390;28;1057;-22
2021/11/15 02:10:42;;;;;;;;;;;;;;;;;;1025473;28;947;-22
2021/11/15 02:11:12;;;;;;;;;;;;;;;;;;1026083;28;847;-22
2021/11/15 02:11:43;;;;;;;;;;;;;;;;;;1025678;28;1180;-23
2021/11/15 02:12:14;;;;;;;;;;;;;;;;;;1025980;28;891;-22
2021/11/15 02:12:45;;;;;;;;;;;;;;;;;;1025202;28;1378;-23
2021/11/15 02:13:17;;;;;;;;;;;;;;;;;;1025771;28;1350;-22
2021/11/15 02:13:48;;;;;;;;;;;;;;;;;;1016956;29;1142;-22
2021/11/15 02:14:18;;;;;;;;;;;;;;;;;;1009109;29;1072;-23
2021/11/15 02:14:49;;;;;;;;;;;;;;;;;;1009247;29;949;-22
2021/11/15 02:15:19;;;;;;;;;;;;;;;;;;1008721;29;1297;-23
2021/11/15 02:15:51;;;;;;;;;;;;;;;;;;1009057;29;1003;-22
2021/11/15 02:16:22;;;;;;;;;;;;;;;;;;1013566;28;1002;-24
2021/11/15 02:16:52;;;;;;;;;;;;;;;;;;1025076;28;1166;-23
2021/11/15 02:17:23;;;;;;;;;;;;;;;;;;1017066;29;1354;-22
2021/11/15 02:17:53;;;;;;;;;;;;;;;;;;1017107;29;919;-23
2021/11/15 02:18:24;;;;;;;;;;;;;;;;;;1016721;29;1412;-22
2021/11/15 02:18:54;;;;;;;;;;;;;;;;;;1016888;28;1171;-23
2021/11/15 02:19:25;;;;;;;;;;;;;;;;;;1025319;28;1158;-22
2021/11/15 02:19:55;;;;;;;;;;;;;;;;;;1025808;28;1208;-22
2021/11/15 02:20:28;;;;;;;;;;;;;;;;;;1020943;29;951;-22
2021/11/15 02:20:59;;;;;;;;;;;;;;;;;;1017017;29;1690;-22
2021/11/15 02:21:30;;;;;;;;;;;;;;;;;;1017070;29;992;-23
2021/11/15 02:22:01;;;;;;;;;;;;;;;;;;1017193;29;1018;-23
2021/11/15 02:22:31;;;;;;;;;;;;;;;;;;1016942;29;1417;-23
2021/11/15 02:23:02;;;;;;;;;;;;;;;;;;1009179;29;1201;-22
2021/11/15 02:23:34;;;;;;;;;;;;;;;;;;1009055;29;1506;-22
2021/11/15 02:24:05;;;;;;;;;;;;;;;;;;1016636;29;1914;-22
2021/11/15 02:24:35;;;;;;;;;;;;;;;;;;1017547;28;1172;-24
2021/11/15 02:25:06;;;;;;;;;;;;;;;;;;1016521;29;1393;-22
2021/11/15 02:25:37;;;;;;;;;;;;;;;;;;1013070;29;1041;-23
2021/11/15 02:26:16;;;;;;;;;;;;;;;;;;1016986;29;996;-22
2021/11/15 02:26:46;;;;;;;;;;;;;;;;;;1018019;29;997;-22
2021/11/15 02:27:16;;;;;;;;;;;;;;;;;;1021166;29;1393;-22
2021/11/15 02:27:47;;;;;;;;;;;;;;;;;;1021635;28;1586;-23
2021/11/15 02:28:18;;;;;;;;;;;;;;;;;;1025802;28;1088;-22
2021/11/15 02:28:49;;;;;;;;;;;;;;;;;;1025542;28;1160;-25
2021/11/15 02:29:19;;;;;;;;;;;;;;;;;;1025609;28;1188;-23
2021/11/15 02:29:50;;;;;;;;;;;;;;;;;;1025626;28;942;-23
2021/11/15 02:30:22;;;;;;;;;;;;;;;;;;1025822;28;824;-23
2021/11/15 02:30:53;;;;;;;;;;;;;;;;;;1025552;28;1064;-20
2021/11/15 02:31:27;;;;;;;;;;;;;;;;;;1025771;28;950;-19
2021/11/15 02:31:58;;;;;;;;;;;;;;;;;;1025628;28;1371;-20
2021/11/15 02:32:28;;;;;;;;;;;;;;;;;;1025702;28;1019;-20
2021/11/15 02:33:00;;;;;;;;;;;;;;;;;;1025865;28;936;-20
2021/11/15 02:33:31;;;;;;;;;;;;;;;;;;1025701;28;776;-21
2021/11/15 02:34:01;;;;;;;;;;;;;;;;;;1025767;28;931;-20
2021/11/15 02:34:32;;;;;;;;;;;;;;;;;;1025027;28;1161;-20
2021/11/15 02:35:02;;;;;;;;;;;;;;;;;;1025537;28;1071;-21
2021/11/15 02:35:33;;;;;;;;;;;;;;;;;;1021073;29;900;-21
2021/11/15 02:36:05;;;;;;;;;;;;;;;;;;1020388;29;1424;-21
2021/11/15 02:36:35;;;;;;;;;;;;;;;;;;1021010;29;978;-20
2021/11/15 02:37:05;;;;;;;;;;;;;;;;;;1020909;28;1255;-20
2021/11/15 02:37:36;;;;;;;;;;;;;;;;;;1025581;28;875;-20
2021/11/15 02:38:07;;;;;;;;;;;;;;;;;;1025408;28;1053;-21
2021/11/15 02:38:38;;;;;;;;;;;;;;;;;;1025011;28;1429;-20
2021/11/15 02:39:08;;;;;;;;;;;;;;;;;;1025447;28;988;-21
2021/11/15 02:39:39;;;;;;;;;;;;;;;;;;1025518;28;1033;-20
2021/11/15 02:40:11;;;;;;;;;;;;;;;;;;1020869;29;1111;-20
2021/11/15 02:40:41;;;;;;;;;;;;;;;;;;1020992;29;1176;-20
2021/11/15 02:41:13;;;;;;;;;;;;;;;;;;1020675;29;1428;-21
2021/11/15 02:41:43;;;;;;;;;;;;;;;;;;1020536;29;997;-20
2021/11/15 02:42:14;;;;;;;;;;;;;;;;;;1017961;29;934;-20
2021/11/15 02:42:46;;;;;;;;;;;;;;;;;;1017277;29;1148;-20
2021/11/15 02:43:17;;;;;;;;;;;;;;;;;;1018000;29;1107;-20
2021/11/15 02:43:47;;;;;;;;;;;;;;;;;;1017219;29;1906;-21
2021/11/15 02:44:18;;;;;;;;;;;;;;;;;;1017534;29;1044;-20
2021/11/15 02:44:49;;;;;;;;;;;;;;;;;;1016769;29;1180;-20
2021/11/15 02:45:20;;;;;;;;;;;;;;;;;;1012591;29;1320;-20
2021/11/15 02:45:51;;;;;;;;;;;;;;;;;;1013000;29;1145;-20
2021/11/15 02:46:22;;;;;;;;;;;;;;;;;;1016701;29;1568;-21
2021/11/15 02:46:53;;;;;;;;;;;;;;;;;;1016625;29;1314;-20
2021/11/15 02:47:24;;;;;;;;;;;;;;;;;;1012805;29;1019;-20
2021/11/15 02:47:55;;;;;;;;;;;;;;;;;;1012849;29;942;-21
2021/11/15 02:48:26;;;;;;;;;;;;;;;;;;1013079;29;1155;-20
2021/11/15 02:48:57;;;;;;;;;;;;;;;;;;1017036;29;1031;-20
2021/11/15 02:49:28;;;;;;;;;;;;;;;;;;1016911;29;839;-20
2021/11/15 02:49:59;;;;;;;;;;;;;;;;;;1021174;29;949;-21
2021/11/15 02:50:31;;;;;;;;;;;;;;;;;;1020676;29;965;-20
2021/11/15 02:51:02;;;;;;;;;;;;;;;;;;1024598;28;1027;-20
2021/11/15 02:51:33;;;;;;;;;;;;;;;;;;1024667;28;957;-20
2021/11/15 02:52:04;;;;;;;;;;;;;;;;;;1023702;28;1332;-20
2021/11/15 02:52:34;;;;;;;;;;;;;;;;;;1020378;29;1190;-19
2021/11/15 02:53:06;;;;;;;;;;;;;;;;;;1017074;29;1132;-20
2021/11/15 02:53:37;;;;;;;;;;;;;;;;;;1016966;29;1044;-20
2021/11/15 02:54:07;;;;;;;;;;;;;;;;;;1017056;29;983;-20
2021/11/15 02:54:38;;;;;;;;;;;;;;;;;;1013182;29;1085;-21
2021/11/15 02:55:09;;;;;;;;;;;;;;;;;;1013279;29;1105;-21
2021/11/15 02:55:39;;;;;;;;;;;;;;;;;;1013474;29;1312;-20
2021/11/15 02:56:10;;;;;;;;;;;;;;;;;;1013179;29;1415;-20
2021/11/15 02:56:40;;;;;;;;;;;;;;;;;;1013423;29;1145;-21
2021/11/15 02:57:15;;;;;;;;;;;;;;;;;;1013609;29;1234;-20
2021/11/15 02:57:45;;;;;;;;;;;;;;;;;;1013474;29;1454;-21
2021/11/15 02:58:16;;;;;;;;;;;;;;;;;;1013897;29;919;-20
2021/11/15 02:58:46;;;;;;;;;;;;;;;;;;1013070;29;1352;-20
2021/11/15 02:59:17;;;;;;;;;;;;;;;;;;1013875;29;954;-21
2021/11/15 02:59:47;;;;;;;;;;;;;;;;;;1013323;29;1459;-20
2021/11/15 03:00:25;;;;;;;;;;;;;;;;;;1013589;29;1124;-20
2021/11/15 03:01:00;;;;;;;;;;;;;;;;;;1020770;29;952;-21
2021/11/15 03:01:37;;;;;;;;;;;;;;;;;;1020984;29;1135;-20
2021/11/15 03:02:08;;;;;;;;;;;;;;;;;;1012851;29;1103;-20
2021/11/15 03:02:38;;;;;;;;;;;;;;;;;;1010904;29;1464;-20
2021/11/15 03:03:10;;;;;;;;;;;;;;;;;;1008901;29;962;-22
2021/11/15 03:03:43;;;;;;;;;;;;;;;;;;1009242;29;1911;-20
2021/11/15 03:04:14;;;;;;;;;;;;;;;;;;1013553;29;1090;-21
2021/11/15 03:04:45;;;;;;;;;;;;;;;;;;1020746;29;992;-20
2021/11/15 03:05:20;;;;;;;;;;;;;;;;;;1020574;29;993;-20
2021/11/15 03:05:52;;;;;;;;;;;;;;;;;;1020826;29;1014;-20
2021/11/15 03:06:22;;;;;;;;;;;;;;;;;;1019720;29;1071;-20
2021/11/15 03:06:53;;;;;;;;;;;;;;;;;;1013533;29;1129;-22
2021/11/15 03:07:24;;;;;;;;;;;;;;;;;;1013886;29;986;-20
2021/11/15 03:07:55;;;;;;;;;;;;;;;;;;1016958;29;1069;-20
2021/11/15 03:08:25;;;;;;;;;;;;;;;;;;1016715;29;934;-20
2021/11/15 03:08:56;;;;;;;;;;;;;;;;;;1016692;29;1024;-22
2021/11/15 03:09:26;;;;;;;;;;;;;;;;;;1016468;29;1312;-19
2021/11/15 03:09:57;;;;;;;;;;;;;;;;;;1016925;29;1054;-20
2021/11/15 03:10:27;;;;;;;;;;;;;;;;;;1017038;29;958;-19
2021/11/15 03:11:02;;;;;;;;;;;;;;;;;;1013617;29;903;-20
2021/11/15 03:11:32;;;;;;;;;;;;;;;;;;1021063;29;1298;-22
2021/11/15 03:12:03;;;;;;;;;;;;;;;;;;1020833;29;914;-20
2021/11/15 03:12:34;;;;;;;;;;;;;;;;;;1021149;29;1062;-20
2021/11/15 03:13:06;;;;;;;;;;;;;;;;;;1012358;29;1199;-21
2021/11/15 03:13:38;;;;;;;;;;;;;;;;;;1009013;29;899;-21
2021/11/15 03:14:09;;;;;;;;;;;;;;;;;;1017024;29;958;-22
2021/11/15 03:14:39;;;;;;;;;;;;;;;;;;1017351;28;1392;-20
2021/11/15 03:15:20;;;;;;;;;;;;;;;;;;1024552;28;1073;-20
2021/11/15 03:15:52;;;;;;;;;;;;;;;;;;1021123;28;1111;-20
2021/11/15 03:16:22;;;;;;;;;;;;;;;;;;1016493;29;1074;-20
2021/11/15 03:16:53;;;;;;;;;;;;;;;;;;1016458;29;1036;-19
2021/11/15 03:17:23;;;;;;;;;;;;;;;;;;1016376;29;1098;-20
2021/11/15 03:17:55;;;;;;;;;;;;;;;;;;1016708;29;1013;-21
2021/11/15 03:18:28;;;;;;;;;;;;;;;;;;1020806;29;926;-20
2021/11/15 03:18:58;;;;;;;;;;;;;;;;;;1020730;29;902;-20
2021/11/15 03:19:30;;;;;;;;;;;;;;;;;;1016714;29;1012;-20
2021/11/15 03:20:00;;;;;;;;;;;;;;;;;;1016164;29;1136;-21
2021/11/15 03:20:35;;;;;;;;;;;;;;;;;;1016387;29;1145;-20
2021/11/15 03:21:08;;;;;;;;;;;;;;;;;;1016765;29;917;-21
2021/11/15 03:21:39;;;;;;;;;;;;;;;;;;1016675;29;1421;-20
2021/11/15 03:22:09;;;;;;;;;;;;;;;;;;1016882;29;1129;-20
2021/11/15 03:22:40;;;;;;;;;;;;;;;;;;1016760;29;1141;-20
2021/11/15 03:23:12;;;;;;;;;;;;;;;;;;1012718;29;998;-20
2021/11/15 03:23:43;;;;;;;;;;;;;;;;;;1008981;29;1927;-20
2021/11/15 03:24:13;;;;;;;;;;;;;;;;;;1008734;29;1309;-20
2021/11/15 03:24:45;;;;;;;;;;;;;;;;;;1009362;29;1046;-20
2021/11/15 03:25:16;;;;;;;;;;;;;;;;;;1016914;29;950;-20
2021/11/15 03:25:47;;;;;;;;;;;;;;;;;;1016480;29;1050;-20
2021/11/15 03:26:18;;;;;;;;;;;;;;;;;;1012908;29;1230;-20
2021/11/15 03:26:49;;;;;;;;;;;;;;;;;;1012560;29;1139;-20
2021/11/15 03:27:20;;;;;;;;;;;;;;;;;;1009110;29;981;-21
2021/11/15 03:27:50;;;;;;;;;;;;;;;;;;1016792;29;962;-20
2021/11/15 03:28:22;;;;;;;;;;;;;;;;;;1020110;29;1476;-21
2021/11/15 03:28:53;;;;;;;;;;;;;;;;;;1016746;29;1309;-20
2021/11/15 03:29:24;;;;;;;;;;;;;;;;;;1015962;29;1403;-20
2021/11/15 03:29:54;;;;;;;;;;;;;;;;;;1013642;29;955;-20
2021/11/15 03:30:25;;;;;;;;;;;;;;;;;;1016752;29;994;-20
2021/11/15 03:30:57;;;;;;;;;;;;;;;;;;1016244;29;1390;-21
2021/11/15 03:31:29;;;;;;;;;;;;;;;;;;1016979;29;1014;-20
2021/11/15 03:32:00;;;;;;;;;;;;;;;;;;1016339;29;1368;-20
2021/11/15 03:32:31;;;;;;;;;;;;;;;;;;1016616;29;1001;-20
2021/11/15 03:33:01;;;;;;;;;;;;;;;;;;1016702;29;1014;-20
2021/11/15 03:33:33;;;;;;;;;;;;;;;;;;1016647;29;1410;-20
2021/11/15 03:34:08;;;;;;;;;;;;;;;;;;1016340;29;1183;-20
2021/11/15 03:34:39;;;;;;;;;;;;;;;;;;1008594;29;1400;-21
2021/11/15 03:35:10;;;;;;;;;;;;;;;;;;1012509;29;1252;-20
2021/11/15 03:35:41;;;;;;;;;;;;;;;;;;1009061;29;1095;-21
2021/11/15 03:36:11;;;;;;;;;;;;;;;;;;1009120;29;1618;-20
2021/11/15 03:36:43;;;;;;;;;;;;;;;;;;1016680;29;904;-21
2021/11/15 03:37:13;;;;;;;;;;;;;;;;;;1013461;29;950;-20